sensor_id;sensor_type;location;lat;lon;timestamp;temperature;humidity
37410;DHT22;23275;48.914;12.566;2023-07-28T00:00:14;15.30;99.90
37410;DHT22;23275;48.914;12.566;2023-07-28T00:02:40;15.30;99.90
37410;DHT22;23275;48.914;12.566;2023-07-28T00:05:06;15.30;99.90
37410;DHT22;23275;48.914;12.566;2023-07-28T00:07:31;15.20;99.90
37410;DHT22;23275;48.914;12.566;2023-07-28T00:09:59;15.20;99.90
37410;DHT22;23275;48.914;12.566;2023-07-28T00:12:24;15.20;99.90
37410;DHT22;23275;48.914;12.566;2023-07-28T00:14:50;15.20;99.90
37410;DHT22;23275;48.914;12.566;2023-07-28T00:17:16;15.20;99.90
37410;DHT22;23275;48.914;12.566;2023-07-28T00:19:41;15.30;99.90
37410;DHT22;23275;48.914;12.566;2023-07-28T00:22:07;15.30;99.90
37410;DHT22;23275;48.914;12.566;2023-07-28T00:24:32;15.30;99.90
37410;DHT22;23275;48.914;12.566;2023-07-28T00:26:58;15.20;99.90
37410;DHT22;23275;48.914;12.566;2023-07-28T00:29:24;15.20;99.90
37410;DHT22;23275;48.914;12.566;2023-07-28T00:31:49;15.30;99.90
37410;DHT22;23275;48.914;12.566;2023-07-28T00:34:15;15.30;99.90
37410;DHT22;23275;48.914;12.566;2023-07-28T00:36:40;15.30;99.90
37410;DHT22;23275;48.914;12.566;2023-07-28T00:39:06;15.30;99.90
37410;DHT22;23275;48.914;12.566;2023-07-28T00:41:32;15.40;99.90
37410;DHT22;23275;48.914;12.566;2023-07-28T00:43:57;15.40;99.90
37410;DHT22;23275;48.914;12.566;2023-07-28T00:46:23;15.40;99.90
37410;DHT22;23275;48.914;12.566;2023-07-28T00:48:48;15.40;99.90
37410;DHT22;23275;48.914;12.566;2023-07-28T00:51:14;15.40;99.90
37410;DHT22;23275;48.914;12.566;2023-07-28T00:53:40;15.40;99.90
37410;DHT22;23275;48.914;12.566;2023-07-28T00:56:06;15.40;99.90
37410;DHT22;23275;48.914;12.566;2023-07-28T00:58:32;15.40;99.90
37410;DHT22;23275;48.914;12.566;2023-07-28T01:00:58;15.50;99.90
37410;DHT22;23275;48.914;12.566;2023-07-28T01:03:24;15.50;99.90
37410;DHT22;23275;48.914;12.566;2023-07-28T01:09:02;15.50;99.90
37410;DHT22;23275;48.914;12.566;2023-07-28T01:11:29;15.50;99.90
37410;DHT22;23275;48.914;12.566;2023-07-28T01:13:54;15.50;99.90
37410;DHT22;23275;48.914;12.566;2023-07-28T01:16:20;15.50;99.90
37410;DHT22;23275;48.914;12.566;2023-07-28T01:18:46;15.50;99.90
37410;DHT22;23275;48.914;12.566;2023-07-28T01:21:20;15.50;99.90
37410;DHT22;23275;48.914;12.566;2023-07-28T01:26:37;15.50;99.90
37410;DHT22;23275;48.914;12.566;2023-07-28T01:29:03;15.50;99.90
37410;DHT22;23275;48.914;12.566;2023-07-28T01:31:30;15.50;99.90
37410;DHT22;23275;48.914;12.566;2023-07-28T01:33:55;15.50;99.90
37410;DHT22;23275;48.914;12.566;2023-07-28T01:36:21;15.50;99.90
37410;DHT22;23275;48.914;12.566;2023-07-28T01:38:46;15.50;99.90
37410;DHT22;23275;48.914;12.566;2023-07-28T01:41:12;15.60;99.90
37410;DHT22;23275;48.914;12.566;2023-07-28T01:43:37;15.60;99.90
37410;DHT22;23275;48.914;12.566;2023-07-28T01:46:03;15.60;99.90
37410;DHT22;23275;48.914;12.566;2023-07-28T01:48:29;15.50;99.90
37410;DHT22;23275;48.914;12.566;2023-07-28T01:50:54;15.60;99.90
37410;DHT22;23275;48.914;12.566;2023-07-28T01:53:20;15.50;99.90
37410;DHT22;23275;48.914;12.566;2023-07-28T01:55:46;15.50;99.90
37410;DHT22;23275;48.914;12.566;2023-07-28T01:58:12;15.50;99.90
37410;DHT22;23275;48.914;12.566;2023-07-28T02:00:38;15.40;99.90
37410;DHT22;23275;48.914;12.566;2023-07-28T02:03:03;15.40;99.90
37410;DHT22;23275;48.914;12.566;2023-07-28T02:05:29;15.40;99.90
37410;DHT22;23275;48.914;12.566;2023-07-28T02:07:55;15.30;99.90
37410;DHT22;23275;48.914;12.566;2023-07-28T02:10:22;15.30;99.90
37410;DHT22;23275;48.914;12.566;2023-07-28T02:12:49;15.30;99.90
37410;DHT22;23275;48.914;12.566;2023-07-28T02:15:14;15.30;99.90
37410;DHT22;23275;48.914;12.566;2023-07-28T02:17:40;15.20;99.90
37410;DHT22;23275;48.914;12.566;2023-07-28T02:20:06;15.20;99.90
37410;DHT22;23275;48.914;12.566;2023-07-28T02:22:32;15.20;99.90
37410;DHT22;23275;48.914;12.566;2023-07-28T02:24:57;15.20;99.90
37410;DHT22;23275;48.914;12.566;2023-07-28T02:27:27;15.20;99.90
37410;DHT22;23275;48.914;12.566;2023-07-28T02:29:52;15.20;99.90
37410;DHT22;23275;48.914;12.566;2023-07-28T02:32:18;15.20;99.90
37410;DHT22;23275;48.914;12.566;2023-07-28T02:34:44;15.20;99.90
37410;DHT22;23275;48.914;12.566;2023-07-28T02:37:09;15.20;99.90
37410;DHT22;23275;48.914;12.566;2023-07-28T02:39:35;15.20;99.90
37410;DHT22;23275;48.914;12.566;2023-07-28T02:42:01;15.20;99.90
37410;DHT22;23275;48.914;12.566;2023-07-28T02:44:26;15.20;99.90
37410;DHT22;23275;48.914;12.566;2023-07-28T02:46:52;15.20;99.90
37410;DHT22;23275;48.914;12.566;2023-07-28T02:49:18;15.10;99.90
37410;DHT22;23275;48.914;12.566;2023-07-28T02:51:43;15.10;99.90
37410;DHT22;23275;48.914;12.566;2023-07-28T02:54:09;15.10;99.90
37410;DHT22;23275;48.914;12.566;2023-07-28T02:56:35;15.10;99.90
37410;DHT22;23275;48.914;12.566;2023-07-28T02:59:03;15.10;99.90
37410;DHT22;23275;48.914;12.566;2023-07-28T03:01:30;15.10;99.90
37410;DHT22;23275;48.914;12.566;2023-07-28T03:04:01;15.00;99.90
37410;DHT22;23275;48.914;12.566;2023-07-28T03:06:27;15.00;99.90
37410;DHT22;23275;48.914;12.566;2023-07-28T03:08:53;15.00;99.90
37410;DHT22;23275;48.914;12.566;2023-07-28T03:11:19;15.00;99.90
37410;DHT22;23275;48.914;12.566;2023-07-28T03:13:44;15.00;99.90
37410;DHT22;23275;48.914;12.566;2023-07-28T03:16:10;15.10;99.90
37410;DHT22;23275;48.914;12.566;2023-07-28T03:18:36;15.10;99.90
37410;DHT22;23275;48.914;12.566;2023-07-28T03:21:01;15.10;99.90
37410;DHT22;23275;48.914;12.566;2023-07-28T03:23:27;15.10;99.90
37410;DHT22;23275;48.914;12.566;2023-07-28T03:25:52;15.10;99.90
37410;DHT22;23275;48.914;12.566;2023-07-28T03:28:18;15.10;99.90
37410;DHT22;23275;48.914;12.566;2023-07-28T03:30:44;15.10;99.90
37410;DHT22;23275;48.914;12.566;2023-07-28T03:33:09;15.00;99.90
37410;DHT22;23275;48.914;12.566;2023-07-28T03:35:35;15.00;99.90
37410;DHT22;23275;48.914;12.566;2023-07-28T03:38:01;15.00;99.90
37410;DHT22;23275;48.914;12.566;2023-07-28T03:40:26;15.00;99.90
37410;DHT22;23275;48.914;12.566;2023-07-28T03:42:52;15.00;99.90
37410;DHT22;23275;48.914;12.566;2023-07-28T03:45:18;15.00;99.90
37410;DHT22;23275;48.914;12.566;2023-07-28T03:47:44;15.00;99.90
37410;DHT22;23275;48.914;12.566;2023-07-28T03:50:10;15.00;99.90
37410;DHT22;23275;48.914;12.566;2023-07-28T03:52:35;14.90;99.90
37410;DHT22;23275;48.914;12.566;2023-07-28T03:55:01;14.90;99.90
37410;DHT22;23275;48.914;12.566;2023-07-28T03:57:27;14.80;99.90
37410;DHT22;23275;48.914;12.566;2023-07-28T03:59:52;14.80;99.90
37410;DHT22;23275;48.914;12.566;2023-07-28T04:02:18;14.80;99.90
37410;DHT22;23275;48.914;12.566;2023-07-28T04:04:43;14.80;99.90
37410;DHT22;23275;48.914;12.566;2023-07-28T04:07:09;14.90;99.90
37410;DHT22;23275;48.914;12.566;2023-07-28T04:09:34;14.80;99.90
37410;DHT22;23275;48.914;12.566;2023-07-28T04:12:00;14.80;99.90
37410;DHT22;23275;48.914;12.566;2023-07-28T04:14:26;14.70;99.90
37410;DHT22;23275;48.914;12.566;2023-07-28T04:16:51;14.70;99.90
37410;DHT22;23275;48.914;12.566;2023-07-28T04:19:17;14.70;99.90
37410;DHT22;23275;48.914;12.566;2023-07-28T04:21:42;14.70;99.90
37410;DHT22;23275;48.914;12.566;2023-07-28T04:24:09;14.70;99.90
37410;DHT22;23275;48.914;12.566;2023-07-28T04:26:34;14.70;99.90
37410;DHT22;23275;48.914;12.566;2023-07-28T04:29:00;14.70;99.90
37410;DHT22;23275;48.914;12.566;2023-07-28T04:31:26;14.70;99.90
37410;DHT22;23275;48.914;12.566;2023-07-28T04:33:52;14.70;99.90
37410;DHT22;23275;48.914;12.566;2023-07-28T04:36:17;14.70;99.90
37410;DHT22;23275;48.914;12.566;2023-07-28T04:38:43;14.70;99.90
37410;DHT22;23275;48.914;12.566;2023-07-28T04:41:08;14.70;99.90
37410;DHT22;23275;48.914;12.566;2023-07-28T04:43:34;14.70;99.90
37410;DHT22;23275;48.914;12.566;2023-07-28T04:45:59;14.70;99.90
37410;DHT22;23275;48.914;12.566;2023-07-28T04:48:26;14.70;99.90
37410;DHT22;23275;48.914;12.566;2023-07-28T04:50:51;14.70;99.90
37410;DHT22;23275;48.914;12.566;2023-07-28T04:53:17;14.80;99.90
37410;DHT22;23275;48.914;12.566;2023-07-28T04:55:43;14.80;99.90
37410;DHT22;23275;48.914;12.566;2023-07-28T04:58:08;14.90;99.90
37410;DHT22;23275;48.914;12.566;2023-07-28T05:00:34;14.90;99.90
37410;DHT22;23275;48.914;12.566;2023-07-28T05:02:59;15.00;99.90
37410;DHT22;23275;48.914;12.566;2023-07-28T05:05:25;15.00;99.90
37410;DHT22;23275;48.914;12.566;2023-07-28T05:07:51;15.20;99.90
37410;DHT22;23275;48.914;12.566;2023-07-28T05:10:17;15.20;99.90
37410;DHT22;23275;48.914;12.566;2023-07-28T05:12:43;15.30;99.90
37410;DHT22;23275;48.914;12.566;2023-07-28T05:15:09;15.30;99.90
37410;DHT22;23275;48.914;12.566;2023-07-28T05:17:36;15.30;99.90
37410;DHT22;23275;48.914;12.566;2023-07-28T05:20:02;15.30;99.90
37410;DHT22;23275;48.914;12.566;2023-07-28T05:22:28;15.40;99.90
37410;DHT22;23275;48.914;12.566;2023-07-28T05:24:53;15.70;99.90
37410;DHT22;23275;48.914;12.566;2023-07-28T05:27:19;15.90;99.90
37410;DHT22;23275;48.914;12.566;2023-07-28T05:29:45;16.10;99.90
37410;DHT22;23275;48.914;12.566;2023-07-28T05:32:10;16.30;99.90
37410;DHT22;23275;48.914;12.566;2023-07-28T05:34:36;16.40;99.90
37410;DHT22;23275;48.914;12.566;2023-07-28T05:37:01;16.60;99.90
37410;DHT22;23275;48.914;12.566;2023-07-28T05:39:27;16.80;99.90
37410;DHT22;23275;48.914;12.566;2023-07-28T05:41:52;17.00;99.90
37410;DHT22;23275;48.914;12.566;2023-07-28T05:44:18;17.10;99.90
37410;DHT22;23275;48.914;12.566;2023-07-28T05:46:43;17.30;99.90
37410;DHT22;23275;48.914;12.566;2023-07-28T05:49:11;17.50;99.90
37410;DHT22;23275;48.914;12.566;2023-07-28T05:51:36;17.70;99.90
37410;DHT22;23275;48.914;12.566;2023-07-28T05:54:02;17.80;99.90
37410;DHT22;23275;48.914;12.566;2023-07-28T05:56:27;17.80;99.90
37410;DHT22;23275;48.914;12.566;2023-07-28T05:58:53;17.80;99.90
37410;DHT22;23275;48.914;12.566;2023-07-28T06:01:18;17.80;99.90
37410;DHT22;23275;48.914;12.566;2023-07-28T06:03:45;17.90;99.90
37410;DHT22;23275;48.914;12.566;2023-07-28T06:06:10;18.00;99.90
37410;DHT22;23275;48.914;12.566;2023-07-28T06:08:36;18.00;99.90
37410;DHT22;23275;48.914;12.566;2023-07-28T06:11:08;18.20;99.90
37410;DHT22;23275;48.914;12.566;2023-07-28T06:13:33;18.30;99.90
37410;DHT22;23275;48.914;12.566;2023-07-28T06:15:59;18.40;99.90
37410;DHT22;23275;48.914;12.566;2023-07-28T06:18:25;18.50;99.90
37410;DHT22;23275;48.914;12.566;2023-07-28T06:20:50;18.50;99.90
37410;DHT22;23275;48.914;12.566;2023-07-28T06:23:16;18.40;99.90
37410;DHT22;23275;48.914;12.566;2023-07-28T06:25:41;18.40;99.90
37410;DHT22;23275;48.914;12.566;2023-07-28T06:28:09;18.40;99.90
37410;DHT22;23275;48.914;12.566;2023-07-28T06:30:35;18.50;99.90
37410;DHT22;23275;48.914;12.566;2023-07-28T06:33:00;18.50;99.90
37410;DHT22;23275;48.914;12.566;2023-07-28T06:35:26;18.50;99.90
37410;DHT22;23275;48.914;12.566;2023-07-28T06:37:52;18.50;99.90
37410;DHT22;23275;48.914;12.566;2023-07-28T06:40:18;18.50;99.90
37410;DHT22;23275;48.914;12.566;2023-07-28T06:42:44;18.50;99.90
37410;DHT22;23275;48.914;12.566;2023-07-28T06:45:09;18.40;99.90
37410;DHT22;23275;48.914;12.566;2023-07-28T06:47:35;18.40;99.90
37410;DHT22;23275;48.914;12.566;2023-07-28T06:50:00;18.40;99.90
37410;DHT22;23275;48.914;12.566;2023-07-28T06:52:26;18.50;99.90
37410;DHT22;23275;48.914;12.566;2023-07-28T06:54:52;18.50;99.90
37410;DHT22;23275;48.914;12.566;2023-07-28T06:57:19;18.50;99.90
37410;DHT22;23275;48.914;12.566;2023-07-28T06:59:45;18.50;99.90
37410;DHT22;23275;48.914;12.566;2023-07-28T07:02:10;18.60;99.90
37410;DHT22;23275;48.914;12.566;2023-07-28T07:04:36;18.60;99.90
37410;DHT22;23275;48.914;12.566;2023-07-28T07:07:02;18.60;99.90
37410;DHT22;23275;48.914;12.566;2023-07-28T07:09:28;18.70;99.90
37410;DHT22;23275;48.914;12.566;2023-07-28T07:11:54;18.70;99.90
37410;DHT22;23275;48.914;12.566;2023-07-28T07:14:19;18.80;99.90
37410;DHT22;23275;48.914;12.566;2023-07-28T07:16:45;18.80;99.90
37410;DHT22;23275;48.914;12.566;2023-07-28T07:19:10;18.90;99.90
37410;DHT22;23275;48.914;12.566;2023-07-28T07:21:36;19.00;99.90
37410;DHT22;23275;48.914;12.566;2023-07-28T07:24:05;19.10;99.90
37410;DHT22;23275;48.914;12.566;2023-07-28T07:26:31;19.20;99.90
37410;DHT22;23275;48.914;12.566;2023-07-28T07:28:57;19.30;99.90
37410;DHT22;23275;48.914;12.566;2023-07-28T07:31:23;19.50;99.90
37410;DHT22;23275;48.914;12.566;2023-07-28T07:33:49;19.80;99.90
37410;DHT22;23275;48.914;12.566;2023-07-28T07:36:18;20.00;99.90
37410;DHT22;23275;48.914;12.566;2023-07-28T07:38:44;20.20;99.90
37410;DHT22;23275;48.914;12.566;2023-07-28T07:41:12;20.20;99.90
37410;DHT22;23275;48.914;12.566;2023-07-28T07:43:38;20.10;99.90
37410;DHT22;23275;48.914;12.566;2023-07-28T07:46:04;20.30;99.90
37410;DHT22;23275;48.914;12.566;2023-07-28T07:48:30;20.50;99.90
37410;DHT22;23275;48.914;12.566;2023-07-28T07:50:55;20.60;99.90
37410;DHT22;23275;48.914;12.566;2023-07-28T07:53:21;20.80;99.90
37410;DHT22;23275;48.914;12.566;2023-07-28T07:55:47;21.00;99.90
37410;DHT22;23275;48.914;12.566;2023-07-28T07:58:13;21.10;99.90
37410;DHT22;23275;48.914;12.566;2023-07-28T08:00:38;21.10;99.90
37410;DHT22;23275;48.914;12.566;2023-07-28T08:03:04;20.90;99.90
37410;DHT22;23275;48.914;12.566;2023-07-28T08:05:30;20.90;99.90
37410;DHT22;23275;48.914;12.566;2023-07-28T08:07:56;21.00;99.90
37410;DHT22;23275;48.914;12.566;2023-07-28T08:10:22;21.00;99.90
37410;DHT22;23275;48.914;12.566;2023-07-28T08:12:48;21.20;99.90
37410;DHT22;23275;48.914;12.566;2023-07-28T08:15:13;21.50;99.90
37410;DHT22;23275;48.914;12.566;2023-07-28T08:17:39;21.90;99.90
37410;DHT22;23275;48.914;12.566;2023-07-28T08:20:07;22.30;99.90
37410;DHT22;23275;48.914;12.566;2023-07-28T08:22:32;22.70;99.90
37410;DHT22;23275;48.914;12.566;2023-07-28T08:24:58;23.30;99.90
37410;DHT22;23275;48.914;12.566;2023-07-28T08:27:23;23.60;99.90
37410;DHT22;23275;48.914;12.566;2023-07-28T08:29:49;24.00;99.90
37410;DHT22;23275;48.914;12.566;2023-07-28T08:32:15;24.20;99.90
37410;DHT22;23275;48.914;12.566;2023-07-28T08:34:41;24.30;99.90
37410;DHT22;23275;48.914;12.566;2023-07-28T08:37:06;24.30;99.90
37410;DHT22;23275;48.914;12.566;2023-07-28T08:39:32;24.10;99.90
37410;DHT22;23275;48.914;12.566;2023-07-28T08:42:03;24.00;99.90
37410;DHT22;23275;48.914;12.566;2023-07-28T08:44:33;24.20;99.90
37410;DHT22;23275;48.914;12.566;2023-07-28T08:47:04;24.10;99.90
37410;DHT22;23275;48.914;12.566;2023-07-28T08:49:30;24.10;99.90
37410;DHT22;23275;48.914;12.566;2023-07-28T08:52:01;24.00;99.90
37410;DHT22;23275;48.914;12.566;2023-07-28T08:54:27;23.70;99.90
37410;DHT22;23275;48.914;12.566;2023-07-28T08:56:53;23.40;99.90
37410;DHT22;23275;48.914;12.566;2023-07-28T08:59:27;23.10;99.90
37410;DHT22;23275;48.914;12.566;2023-07-28T09:01:54;22.70;99.90
37410;DHT22;23275;48.914;12.566;2023-07-28T09:04:21;22.40;99.90
37410;DHT22;23275;48.914;12.566;2023-07-28T09:06:48;22.40;99.90
37410;DHT22;23275;48.914;12.566;2023-07-28T09:09:15;22.40;99.90
37410;DHT22;23275;48.914;12.566;2023-07-28T09:11:49;22.40;99.90
37410;DHT22;23275;48.914;12.566;2023-07-28T09:14:16;22.30;99.90
37410;DHT22;23275;48.914;12.566;2023-07-28T09:16:43;22.10;99.90
37410;DHT22;23275;48.914;12.566;2023-07-28T09:19:09;22.00;99.90
37410;DHT22;23275;48.914;12.566;2023-07-28T09:21:36;21.90;99.90
37410;DHT22;23275;48.914;12.566;2023-07-28T09:24:07;21.90;99.90
37410;DHT22;23275;48.914;12.566;2023-07-28T09:26:40;21.90;99.90
37410;DHT22;23275;48.914;12.566;2023-07-28T09:29:17;21.90;99.90
37410;DHT22;23275;48.914;12.566;2023-07-28T09:31:44;21.80;99.90
37410;DHT22;23275;48.914;12.566;2023-07-28T09:34:10;21.80;99.90
37410;DHT22;23275;48.914;12.566;2023-07-28T09:36:37;21.90;99.90
37410;DHT22;23275;48.914;12.566;2023-07-28T09:39:05;21.90;99.90
37410;DHT22;23275;48.914;12.566;2023-07-28T09:41:37;22.00;99.90
37410;DHT22;23275;48.914;12.566;2023-07-28T09:44:04;22.10;99.90
37410;DHT22;23275;48.914;12.566;2023-07-28T09:46:33;22.00;99.90
37410;DHT22;23275;48.914;12.566;2023-07-28T09:48:59;21.90;99.90
37410;DHT22;23275;48.914;12.566;2023-07-28T09:51:30;21.70;99.90
37410;DHT22;23275;48.914;12.566;2023-07-28T09:54:12;21.60;99.90
37410;DHT22;23275;48.914;12.566;2023-07-28T09:56:38;21.40;99.90
37410;DHT22;23275;48.914;12.566;2023-07-28T09:59:08;21.20;99.90
37410;DHT22;23275;48.914;12.566;2023-07-28T10:01:36;21.10;99.90
37410;DHT22;23275;48.914;12.566;2023-07-28T10:04:02;21.00;99.90
37410;DHT22;23275;48.914;12.566;2023-07-28T10:06:28;20.90;99.90
37410;DHT22;23275;48.914;12.566;2023-07-28T10:08:55;20.80;99.90
37410;DHT22;23275;48.914;12.566;2023-07-28T10:11:21;20.80;99.90
37410;DHT22;23275;48.914;12.566;2023-07-28T10:13:47;20.80;99.90
37410;DHT22;23275;48.914;12.566;2023-07-28T10:16:13;20.90;99.90
37410;DHT22;23275;48.914;12.566;2023-07-28T10:18:41;21.00;99.90
37410;DHT22;23275;48.914;12.566;2023-07-28T10:21:16;21.30;99.90
37410;DHT22;23275;48.914;12.566;2023-07-28T10:23:44;21.50;99.90
37410;DHT22;23275;48.914;12.566;2023-07-28T10:26:09;21.50;99.90
37410;DHT22;23275;48.914;12.566;2023-07-28T10:28:39;21.50;99.90
37410;DHT22;23275;48.914;12.566;2023-07-28T10:31:11;21.40;99.90
37410;DHT22;23275;48.914;12.566;2023-07-28T10:36:17;20.80;99.90
37410;DHT22;23275;48.914;12.566;2023-07-28T10:38:43;20.60;99.90
37410;DHT22;23275;48.914;12.566;2023-07-28T10:41:16;20.50;99.90
37410;DHT22;23275;48.914;12.566;2023-07-28T10:43:43;20.50;99.90
37410;DHT22;23275;48.914;12.566;2023-07-28T10:46:11;20.50;99.90
37410;DHT22;23275;48.914;12.566;2023-07-28T10:48:41;20.60;99.90
37410;DHT22;23275;48.914;12.566;2023-07-28T10:51:07;20.80;99.90
37410;DHT22;23275;48.914;12.566;2023-07-28T10:53:33;21.00;99.90
37410;DHT22;23275;48.914;12.566;2023-07-28T10:56:01;21.10;99.90
37410;DHT22;23275;48.914;12.566;2023-07-28T10:58:27;21.40;99.90
37410;DHT22;23275;48.914;12.566;2023-07-28T11:00:53;21.70;99.90
37410;DHT22;23275;48.914;12.566;2023-07-28T11:03:19;21.80;99.90
37410;DHT22;23275;48.914;12.566;2023-07-28T11:05:45;21.80;99.90
37410;DHT22;23275;48.914;12.566;2023-07-28T11:08:13;22.00;99.90
37410;DHT22;23275;48.914;12.566;2023-07-28T11:10:39;22.10;99.90
37410;DHT22;23275;48.914;12.566;2023-07-28T11:13:06;22.30;99.90
37410;DHT22;23275;48.914;12.566;2023-07-28T11:15:32;22.50;99.90
37410;DHT22;23275;48.914;12.566;2023-07-28T11:17:57;22.60;99.90
37410;DHT22;23275;48.914;12.566;2023-07-28T11:20:27;22.60;99.90
37410;DHT22;23275;48.914;12.566;2023-07-28T11:23:01;22.70;99.90
37410;DHT22;23275;48.914;12.566;2023-07-28T11:25:29;22.80;99.90
37410;DHT22;23275;48.914;12.566;2023-07-28T11:27:55;22.90;99.90
37410;DHT22;23275;48.914;12.566;2023-07-28T11:30:22;23.00;99.90
37410;DHT22;23275;48.914;12.566;2023-07-28T11:32:50;23.10;99.90
37410;DHT22;23275;48.914;12.566;2023-07-28T11:35:17;23.20;99.90
37410;DHT22;23275;48.914;12.566;2023-07-28T11:37:46;23.20;99.90
37410;DHT22;23275;48.914;12.566;2023-07-28T11:40:14;23.10;99.90
37410;DHT22;23275;48.914;12.566;2023-07-28T11:42:51;23.00;99.90
37410;DHT22;23275;48.914;12.566;2023-07-28T11:45:19;23.00;99.90
37410;DHT22;23275;48.914;12.566;2023-07-28T11:48:11;23.10;99.90
37410;DHT22;23275;48.914;12.566;2023-07-28T11:50:38;23.40;99.90
37410;DHT22;23275;48.914;12.566;2023-07-28T11:53:05;23.90;99.90
37410;DHT22;23275;48.914;12.566;2023-07-28T11:55:31;24.30;99.90
37410;DHT22;23275;48.914;12.566;2023-07-28T11:57:58;24.70;99.90
37410;DHT22;23275;48.914;12.566;2023-07-28T12:00:31;25.10;99.90
37410;DHT22;23275;48.914;12.566;2023-07-28T12:03:05;25.40;99.90
37410;DHT22;23275;48.914;12.566;2023-07-28T12:05:31;25.60;99.90
37410;DHT22;23275;48.914;12.566;2023-07-28T12:07:58;26.00;99.90
37410;DHT22;23275;48.914;12.566;2023-07-28T12:10:24;26.10;99.90
37410;DHT22;23275;48.914;12.566;2023-07-28T12:12:49;26.40;99.90
37410;DHT22;23275;48.914;12.566;2023-07-28T12:20:35;25.80;99.90
37410;DHT22;23275;48.914;12.566;2023-07-28T12:23:02;25.30;99.90
37410;DHT22;23275;48.914;12.566;2023-07-28T12:25:28;25.00;99.90
37410;DHT22;23275;48.914;12.566;2023-07-28T12:27:54;24.50;99.90
37410;DHT22;23275;48.914;12.566;2023-07-28T12:30:20;24.20;99.90
37410;DHT22;23275;48.914;12.566;2023-07-28T12:32:47;23.90;99.90
37410;DHT22;23275;48.914;12.566;2023-07-28T12:35:12;23.60;99.90
37410;DHT22;23275;48.914;12.566;2023-07-28T12:37:38;23.40;99.90
37410;DHT22;23275;48.914;12.566;2023-07-28T12:40:04;23.20;99.90
37410;DHT22;23275;48.914;12.566;2023-07-28T12:42:31;23.00;99.90
37410;DHT22;23275;48.914;12.566;2023-07-28T12:44:57;22.70;99.90
37410;DHT22;23275;48.914;12.566;2023-07-28T12:47:22;22.60;99.90
37410;DHT22;23275;48.914;12.566;2023-07-28T12:49:48;22.60;99.90
37410;DHT22;23275;48.914;12.566;2023-07-28T12:52:14;22.60;99.90
37410;DHT22;23275;48.914;12.566;2023-07-28T12:54:40;22.70;99.90
37410;DHT22;23275;48.914;12.566;2023-07-28T12:57:08;22.70;99.90
37410;DHT22;23275;48.914;12.566;2023-07-28T12:59:36;22.90;99.90
37410;DHT22;23275;48.914;12.566;2023-07-28T13:02:01;23.20;99.90
37410;DHT22;23275;48.914;12.566;2023-07-28T13:04:27;23.60;99.90
37410;DHT22;23275;48.914;12.566;2023-07-28T13:06:52;24.00;99.90
37410;DHT22;23275;48.914;12.566;2023-07-28T13:09:18;24.30;99.90
37410;DHT22;23275;48.914;12.566;2023-07-28T13:11:44;24.50;99.90
37410;DHT22;23275;48.914;12.566;2023-07-28T13:14:09;24.60;99.90
37410;DHT22;23275;48.914;12.566;2023-07-28T13:16:35;24.90;99.90
37410;DHT22;23275;48.914;12.566;2023-07-28T13:19:03;25.00;99.90
37410;DHT22;23275;48.914;12.566;2023-07-28T13:21:29;24.90;99.90
37410;DHT22;23275;48.914;12.566;2023-07-28T13:23:54;24.80;99.90
37410;DHT22;23275;48.914;12.566;2023-07-28T13:26:20;24.70;99.90
37410;DHT22;23275;48.914;12.566;2023-07-28T13:28:45;24.50;99.90
37410;DHT22;23275;48.914;12.566;2023-07-28T13:31:16;24.60;99.90
37410;DHT22;23275;48.914;12.566;2023-07-28T13:33:44;24.70;99.90
37410;DHT22;23275;48.914;12.566;2023-07-28T13:36:12;24.70;99.90
37410;DHT22;23275;48.914;12.566;2023-07-28T13:38:38;24.90;99.90
37410;DHT22;23275;48.914;12.566;2023-07-28T13:41:05;25.00;99.90
37410;DHT22;23275;48.914;12.566;2023-07-28T13:43:34;25.10;99.90
37410;DHT22;23275;48.914;12.566;2023-07-28T13:46:02;24.90;99.90
37410;DHT22;23275;48.914;12.566;2023-07-28T13:48:27;24.60;99.90
37410;DHT22;23275;48.914;12.566;2023-07-28T13:50:53;23.90;99.90
37410;DHT22;23275;48.914;12.566;2023-07-28T13:53:18;23.30;99.90
37410;DHT22;23275;48.914;12.566;2023-07-28T13:55:44;22.90;99.90
37410;DHT22;23275;48.914;12.566;2023-07-28T13:58:09;22.90;99.90
37410;DHT22;23275;48.914;12.566;2023-07-28T14:00:35;23.00;99.90
37410;DHT22;23275;48.914;12.566;2023-07-28T14:03:01;23.20;99.90
37410;DHT22;23275;48.914;12.566;2023-07-28T14:05:27;23.20;99.90
37410;DHT22;23275;48.914;12.566;2023-07-28T14:07:53;23.10;99.90
37410;DHT22;23275;48.914;12.566;2023-07-28T14:10:18;23.00;99.90
37410;DHT22;23275;48.914;12.566;2023-07-28T14:12:44;23.00;99.90
37410;DHT22;23275;48.914;12.566;2023-07-28T14:15:09;22.90;99.90
37410;DHT22;23275;48.914;12.566;2023-07-28T14:17:35;23.00;99.90
37410;DHT22;23275;48.914;12.566;2023-07-28T14:20:01;23.20;99.90
37410;DHT22;23275;48.914;12.566;2023-07-28T14:22:26;23.30;99.90
37410;DHT22;23275;48.914;12.566;2023-07-28T14:24:52;23.50;99.90
37410;DHT22;23275;48.914;12.566;2023-07-28T14:27:18;23.50;99.90
37410;DHT22;23275;48.914;12.566;2023-07-28T14:29:43;23.70;99.90
37410;DHT22;23275;48.914;12.566;2023-07-28T14:32:09;23.90;99.90
37410;DHT22;23275;48.914;12.566;2023-07-28T14:34:35;24.00;99.90
37410;DHT22;23275;48.914;12.566;2023-07-28T14:37:04;24.10;99.90
37410;DHT22;23275;48.914;12.566;2023-07-28T14:39:33;24.20;99.90
37410;DHT22;23275;48.914;12.566;2023-07-28T14:41:58;24.20;99.90
37410;DHT22;23275;48.914;12.566;2023-07-28T14:44:24;24.30;99.90
37410;DHT22;23275;48.914;12.566;2023-07-28T14:46:49;24.10;99.90
37410;DHT22;23275;48.914;12.566;2023-07-28T14:49:15;24.10;99.90
37410;DHT22;23275;48.914;12.566;2023-07-28T14:51:40;24.10;99.90
37410;DHT22;23275;48.914;12.566;2023-07-28T14:54:06;24.10;99.90
37410;DHT22;23275;48.914;12.566;2023-07-28T14:56:32;24.10;99.90
37410;DHT22;23275;48.914;12.566;2023-07-28T14:59:00;24.00;99.90
37410;DHT22;23275;48.914;12.566;2023-07-28T15:01:27;24.00;99.90
37410;DHT22;23275;48.914;12.566;2023-07-28T15:03:52;24.10;99.90
37410;DHT22;23275;48.914;12.566;2023-07-28T15:06:18;24.20;99.90
37410;DHT22;23275;48.914;12.566;2023-07-28T15:08:45;24.30;99.90
37410;DHT22;23275;48.914;12.566;2023-07-28T15:11:11;24.50;99.90
37410;DHT22;23275;48.914;12.566;2023-07-28T15:13:36;24.50;99.90
37410;DHT22;23275;48.914;12.566;2023-07-28T15:16:02;24.50;99.90
37410;DHT22;23275;48.914;12.566;2023-07-28T15:18:27;24.50;99.90
37410;DHT22;23275;48.914;12.566;2023-07-28T15:20:53;24.50;99.90
37410;DHT22;23275;48.914;12.566;2023-07-28T15:23:22;24.50;99.90